Time;durP1;ratioP1;P1;durP2;ratioP2;P2;SDS_P1;SDS_P2;PMS_P1;PMS_P2;Temp;Humidity;BMP_temperature;BMP_pressure;BME280_temperature;BME280_humidity;BME280_pressure;Samples;Min_cycle;Max_cycle;Signal;HPM_P1;HPM_P2
2021/03/21 00:03:43;;;;;;;10.18;4.20;;;;;;;4.21;92.34;101668.47;10039812;28;20047;-68
2021/03/21 00:08:39;;;;;;;9.30;4.40;;;;;;;4.17;91.98;101649.19;10056672;28;20058;-69
2021/03/21 00:13:36;;;;;;;11.85;4.20;;;;;;;4.16;92.10;101649.47;10042695;28;20074;-66
2021/03/21 00:18:35;;;;;;;9.02;4.60;;;;;;;4.24;91.75;101651.72;10046488;28;20520;-67
2021/03/21 00:23:42;;;;;;;9.32;4.68;;;;;;;4.24;91.39;101646.31;10063399;28;20122;-68
2021/03/21 00:28:39;;;;;;;9.25;4.00;;;;;;;4.23;91.74;101628.44;10060511;29;20063;-70
2021/03/21 00:33:37;;;;;;;10.02;5.53;;;;;;;4.27;91.81;101624.16;10054420;28;20043;-69
2021/03/21 00:38:36;;;;;;;12.57;5.50;;;;;;;4.31;91.72;101625.28;10052823;28;20059;-69
2021/03/21 00:43:32;;;;;;;9.80;4.93;;;;;;;4.31;91.68;101609.03;10044086;28;20134;-70
2021/03/21 00:48:34;;;;;;;8.98;5.05;;;;;;;4.34;91.22;101589.59;10032963;28;20055;-70
2021/03/21 00:53:30;;;;;;;11.63;4.78;;;;;;;4.34;92.13;101576.06;10054950;28;20079;-69
2021/03/21 00:58:27;;;;;;;15.48;3.92;;;;;;;4.33;92.07;101560.88;10045823;28;20048;-66
2021/03/21 01:03:30;;;;;;;11.70;5.13;;;;;;;4.35;91.77;101550.59;10049775;28;20055;-68
2021/03/21 01:08:32;;;;;;;;;;;;;;;4.38;91.86;101549.25;10043521;29;20906;-66
2021/03/21 01:13:38;;;;;;;10.77;5.20;;;;;;;4.39;92.65;101549.03;10041286;28;19923;-66
2021/03/21 01:18:40;;;;;;;12.07;4.90;;;;;;;4.41;92.70;101557.72;10045062;29;20052;-67
2021/03/21 01:23:40;;;;;;;12.13;5.43;;;;;;;4.44;92.52;101548.25;10044644;29;20051;-70
2021/03/21 01:28:37;;;;;;;9.40;5.05;;;;;;;4.47;91.83;101538.78;10050026;28;20055;-67
2021/03/21 01:33:34;;;;;;;15.35;6.13;;;;;;;4.48;92.96;101543.97;10049892;28;20082;-63
2021/03/21 01:38:33;;;;;;;14.63;7.65;;;;;;;4.47;93.70;101515.22;10031885;29;20059;-69
2021/03/21 01:43:35;;;;;;;21.25;8.77;;;;;;;4.55;93.75;101516.66;10034891;29;20047;-69
2021/03/21 01:49:27;;;;;;;15.25;6.10;;;;;;;4.57;93.71;101498.25;10039585;28;20126;-69
2021/03/21 01:54:36;;;;;;;17.90;8.95;;;;;;;4.56;94.25;101493.91;10046270;29;20248;-68
2021/03/21 01:59:35;;;;;;;16.25;8.48;;;;;;;4.61;94.21;101483.13;10047072;28;20051;-67
2021/03/21 02:04:31;;;;;;;12.63;6.90;;;;;;;4.65;93.85;101484.25;10049710;28;20047;-68
2021/03/21 02:09:35;;;;;;;10.32;5.43;;;;;;;4.62;94.28;101490.19;10067871;28;20051;-68
2021/03/21 02:15:06;;;;;;;8.75;4.70;;;;;;;4.64;93.71;101488.00;10054608;29;20137;-65
2021/03/21 02:20:29;;;;;;;14.05;7.45;;;;;;;4.65;93.95;101473.41;10057998;29;20098;-67
2021/03/21 02:26:02;;;;;;;11.63;5.47;;;;;;;4.69;93.40;101469.13;10056172;28;20039;-67
2021/03/21 02:31:29;;;;;;;6.85;4.00;;;;;;;4.68;93.99;101461.22;10042493;28;20499;-66
2021/03/21 02:36:39;;;;;;;6.75;3.17;;;;;;;4.68;93.79;101445.78;10055567;28;20086;-67
2021/03/21 02:41:43;;;;;;;8.18;3.42;;;;;;;4.66;93.58;101445.22;10051825;28;20062;-64
2021/03/21 02:46:42;;;;;;;;;;;;;;;4.65;93.97;101435.47;10050235;29;20062;-64
2021/03/21 02:51:43;;;;;;;8.32;3.35;;;;;;;4.68;93.97;101416.00;10058830;29;19930;-66
2021/03/21 02:56:42;;;;;;;11.18;4.53;;;;;;;4.65;93.78;101400.28;10067519;28;20044;-63
2021/03/21 03:01:50;;;;;;;6.18;2.90;;;;;;;4.68;93.15;101413.28;10052817;28;20146;-64
2021/03/21 03:07:05;;;;;;;5.53;2.40;;;;;;;4.68;92.80;101404.34;10053785;28;20048;-65
2021/03/21 03:12:08;;;;;;;6.67;2.13;;;;;;;4.62;92.21;101419.75;10042976;28;20048;-64
2021/03/21 03:17:07;;;;;;;7.82;3.05;;;;;;;4.66;91.83;101403.78;10058598;29;20051;-60
2021/03/21 03:22:07;;;;;;;9.80;3.45;;;;;;;4.61;92.47;101380.19;10063841;28;20043;-65
2021/03/21 03:27:10;;;;;;;10.13;3.70;;;;;;;4.61;92.75;101372.06;10048830;28;20098;-64
2021/03/21 03:32:12;;;;;;;10.95;3.72;;;;;;;4.59;92.01;101353.34;10059886;28;20078;-64
2021/03/21 03:37:08;;;;;;;16.83;3.83;;;;;;;4.60;92.75;101357.72;10054531;28;20518;-63
2021/03/21 03:42:07;;;;;;;7.28;2.15;;;;;;;4.53;92.74;101350.91;10067261;28;20549;-63
2021/03/21 03:48:08;;;;;;;11.75;3.47;;;;;;;4.55;93.10;101333.31;10063957;28;20098;-67
2021/03/21 03:53:11;;;;;;;15.32;3.45;;;;;;;4.49;92.53;101322.72;9982776;29;20152;-66
2021/03/21 03:58:12;;;;;;;;;;;;;;;4.49;92.77;101322.72;10031236;28;20064;-67
2021/03/21 04:03:35;;;;;;;10.18;2.70;;;;;;;4.46;92.82;101331.38;10056229;28;19922;-67
2021/03/21 04:09:16;;;;;;;10.68;2.15;;;;;;;4.47;92.11;101328.38;10048475;28;20102;-66
2021/03/21 04:14:21;;;;;;;13.90;2.60;;;;;;;4.51;91.09;101325.97;10046365;28;20059;-66
2021/03/21 04:19:22;;;;;;;25.85;3.28;;;;;;;4.56;90.52;101317.88;10052104;29;20159;-63
2021/03/21 04:24:32;;;;;;;20.27;3.13;;;;;;;4.55;89.58;101299.97;10049093;28;20055;-67
2021/03/21 04:29:39;;;;;;;11.05;2.72;;;;;;;4.56;88.45;101296.22;10057537;28;20043;-66
2021/03/21 04:34:39;;;;;;;9.27;1.83;;;;;;;4.53;88.09;101285.91;10053829;29;20109;-67
2021/03/21 04:39:37;;;;;;;19.92;3.13;;;;;;;4.59;88.24;101287.56;10048887;28;20448;-66
2021/03/21 04:44:52;;;;;;;16.10;3.10;;;;;;;4.56;88.06;101301.63;10047999;29;20098;-66
2021/03/21 04:49:48;;;;;;;22.20;2.80;;;;;;;4.51;84.91;101309.72;10062013;29;20098;-66
2021/03/21 04:54:47;;;;;;;16.98;2.35;;;;;;;4.35;80.66;101312.34;10045975;29;20054;-66
2021/03/21 04:59:44;;;;;;;26.63;3.33;;;;;;;4.28;77.29;101354.25;10052234;28;20051;-66
2021/03/21 05:04:48;;;;;;;23.73;2.60;;;;;;;4.15;77.07;101355.50;10049118;28;20562;-63
2021/03/21 05:09:47;;;;;;;19.67;3.63;;;;;;;4.06;76.29;101362.47;10056591;29;20078;-64
2021/03/21 05:14:52;;;;;;;24.42;3.60;;;;;;;4.11;76.86;101354.41;10052212;28;20523;-62
2021/03/21 05:20:00;;;;;;;37.55;6.00;;;;;;;4.12;76.65;101350.63;10054465;29;20106;-62
2021/03/21 05:25:03;;;;;;;29.85;4.60;;;;;;;4.06;77.01;101351.66;10058015;28;20043;-63
2021/03/21 05:30:15;;;;;;;31.05;3.95;;;;;;;4.07;76.06;101356.00;10064992;29;20051;-65
2021/03/21 05:35:19;;;;;;;36.15;4.60;;;;;;;3.95;75.05;101351.56;10047449;29;20052;-63
2021/03/21 05:40:24;;;;;;;35.45;5.57;;;;;;;4.00;74.94;101348.91;10050693;28;20118;-64
2021/03/21 05:45:56;;;;;;;32.75;5.38;;;;;;;3.99;76.71;101358.09;10053304;28;20052;-67
2021/03/21 05:51:10;;;;;;;41.05;6.45;;;;;;;4.02;77.31;101351.34;10049538;28;20054;-69
2021/03/21 05:56:49;;;;;;;30.80;4.38;;;;;;;4.05;76.48;101371.69;10061440;28;20102;-63
2021/03/21 06:01:53;;;;;;;35.25;4.85;;;;;;;4.05;76.22;101377.09;10037781;29;20815;-62
2021/03/21 06:07:54;;;;;;;31.48;4.13;;;;;;;4.02;74.82;101374.91;10049107;29;20459;-64
2021/03/21 06:13:09;;;;;;;43.92;6.88;;;;;;;4.08;74.49;101387.38;10021072;28;20091;-63
2021/03/21 06:18:19;;;;;;;50.38;8.02;;;;;;;4.08;73.77;101393.59;10057389;28;20043;-65
2021/03/21 06:23:30;;;;;;;30.48;7.43;;;;;;;4.02;74.34;101404.66;10050338;28;20043;-66
2021/03/21 06:28:48;;;;;;;35.35;5.05;;;;;;;4.15;74.50;101412.34;10047040;28;20134;-65
2021/03/21 06:34:02;;;;;;;44.97;6.70;;;;;;;4.20;73.46;101396.13;10052473;29;20503;-65
2021/03/21 06:39:18;;;;;;;52.10;9.25;;;;;;;4.22;74.26;101405.66;10052349;28;20048;-65
2021/03/21 06:44:28;;;;;;;46.38;6.22;;;;;;;4.24;73.90;101418.91;10054280;29;20063;-60
2021/03/21 06:49:24;;;;;;;40.83;5.43;;;;;;;4.34;73.70;101412.75;10065358;28;20117;-65
2021/03/21 06:54:35;;;;;;;35.25;5.97;;;;;;;4.42;73.66;101418.53;10061008;28;20493;-65
2021/03/21 07:00:00;;;;;;;47.40;6.88;;;;;;;4.41;73.87;101426.94;10058948;28;20183;-65
2021/03/21 07:05:49;;;;;;;53.22;7.55;;;;;;;4.59;74.75;101420.25;10059744;29;20083;-66
2021/03/21 07:11:37;;;;;;;49.03;6.47;;;;;;;4.52;73.85;101425.09;10061867;29;20114;-61
2021/03/21 07:16:45;;;;;;;46.72;6.68;;;;;;;4.74;74.27;101428.50;10055480;29;20090;-64
2021/03/21 07:22:20;;;;;;;47.53;7.38;;;;;;;4.84;73.93;101422.31;10064271;28;20066;-65
2021/03/21 07:27:34;;;;;;;55.03;7.22;;;;;;;4.84;73.44;101428.56;10025457;29;20075;-66
2021/03/21 07:32:47;;;;;;;57.05;8.30;;;;;;;4.76;73.17;101425.53;10036679;29;20059;-64
2021/03/21 07:37:46;;;;;;;43.30;6.68;;;;;;;4.88;73.24;101438.91;10044632;28;20067;-66
2021/03/21 07:43:01;;;;;;;38.45;6.13;;;;;;;5.07;72.64;101421.09;10052307;29;20051;-65
2021/03/21 07:48:12;;;;;;;42.97;6.28;;;;;;;5.01;72.00;101427.56;10048094;28;20078;-65
2021/03/21 07:53:30;;;;;;;39.60;5.65;;;;;;;5.05;71.38;101431.38;10052934;28;20677;-64
2021/03/21 07:58:34;;;;;;;46.38;6.43;;;;;;;5.01;71.47;101438.41;10049355;28;20106;-64
2021/03/21 08:03:36;;;;;;;;;;;;;;;5.06;71.00;101438.47;10054093;28;20755;-64
2021/03/21 08:08:37;;;;;;;49.13;6.90;;;;;;;5.13;70.79;101424.63;10052927;28;19927;-66
2021/03/21 08:13:36;;;;;;;39.47;5.40;;;;;;;5.12;71.20;101445.50;10054425;28;20048;-65
2021/03/21 08:18:35;;;;;;;35.75;5.55;;;;;;;5.27;70.97;101437.47;10058401;29;20451;-67
2021/03/21 08:23:37;;;;;;;36.88;5.35;;;;;;;5.47;69.15;101446.75;10052909;28;20709;-64
2021/03/21 08:28:38;;;;;;;52.05;8.10;;;;;;;5.48;68.95;101459.25;10046150;28;20051;-65
2021/03/21 08:33:41;;;;;;;43.95;5.40;;;;;;;5.67;68.00;101473.16;10058216;28;20500;-67
2021/03/21 08:38:39;;;;;;;33.25;6.32;;;;;;;5.62;67.73;101476.66;10056770;28;20062;-66
2021/03/21 08:43:36;;;;;;;45.72;7.25;;;;;;;5.66;67.36;101480.47;10047905;28;20055;-66
2021/03/21 08:48:34;;;;;;;38.10;6.43;;;;;;;5.73;67.10;101465.84;10054528;28;20534;-66
2021/03/21 08:53:36;;;;;;;39.28;5.28;;;;;;;5.72;67.08;101480.50;10051287;28;20048;-66
2021/03/21 08:58:32;;;;;;;33.90;5.25;;;;;;;5.83;67.97;101476.72;10053094;29;20054;-67
2021/03/21 09:03:31;;;;;;;25.10;3.97;;;;;;;5.91;67.01;101478.91;10040459;28;20044;-64
2021/03/21 09:08:30;;;;;;;28.23;6.43;;;;;;;6.01;65.28;101491.72;10056160;28;20062;-65
2021/03/21 09:13:29;;;;;;;31.80;4.65;;;;;;;6.10;65.17;101487.38;10050318;28;20083;-65
2021/03/21 09:18:31;;;;;;;27.92;4.82;;;;;;;6.20;65.32;101487.44;10058622;28;20055;-64
2021/03/21 09:23:31;;;;;;;33.05;5.28;;;;;;;6.29;64.73;101495.88;10043966;29;20563;-65
2021/03/21 09:28:32;;;;;;;27.38;5.53;;;;;;;6.48;64.33;101507.81;10059403;28;20071;-65
2021/03/21 09:33:35;;;;;;;38.10;4.53;;;;;;;6.47;63.42;101530.63;10050301;29;20495;-64
2021/03/21 09:38:45;;;;;;;23.70;4.10;;;;;;;6.69;62.89;101532.28;10038917;28;20895;-65
2021/03/21 09:43:41;;;;;;;30.45;3.83;;;;;;;6.81;62.64;101535.53;10032380;29;20527;-66
2021/03/21 09:49:04;;;;;;;32.08;4.90;;;;;;;7.03;62.87;101537.16;10051741;29;20059;-66
2021/03/21 09:54:14;;;;;;;33.25;5.05;;;;;;;7.16;62.29;101536.59;10035436;28;20048;-65
2021/03/21 09:59:18;;;;;;;25.55;4.18;;;;;;;7.07;61.04;101538.25;10036799;28;20054;-66
2021/03/21 10:04:31;;;;;;;28.42;4.57;;;;;;;7.32;60.67;101524.59;10042761;29;20455;-65
2021/03/21 10:09:31;;;;;;;26.23;4.85;;;;;;;7.21;60.20;101533.03;10036285;28;20079;-65
2021/03/21 10:14:27;;;;;;;27.65;4.15;;;;;;;7.57;60.14;101544.66;10046048;28;20055;-65
2021/03/21 10:19:46;;;;;;;24.00;3.58;;;;;;;7.78;59.63;101565.28;10048601;28;20138;-67
2021/03/21 10:24:43;;;;;;;29.35;3.95;;;;;;;7.85;59.85;101543.19;10047927;28;20047;-68
2021/03/21 10:29:39;;;;;;;22.48;3.90;;;;;;;8.12;58.95;101564.59;10047143;28;20098;-68
2021/03/21 10:34:37;;;;;;;21.02;3.38;;;;;;;8.26;59.95;101569.41;10037946;29;20048;-68
2021/03/21 10:39:39;;;;;;;18.38;4.03;;;;;;;8.32;57.38;101573.72;10040619;29;20043;-67
2021/03/21 10:44:36;;;;;;;23.50;3.92;;;;;;;8.27;58.72;101579.22;10042949;28;20553;-69
2021/03/21 10:49:59;;;;;;;22.52;4.18;;;;;;;8.35;58.75;101589.50;10046072;28;20048;-69
2021/03/21 10:55:31;;;;;;;16.08;4.28;;;;;;;8.19;56.08;101581.44;10043883;29;20507;-68
2021/03/21 11:00:32;;;;;;;23.10;5.18;;;;;;;8.27;55.73;101592.84;10032330;28;20079;-68
2021/03/21 11:05:28;;;;;;;24.50;4.03;;;;;;;8.31;55.12;101588.44;10041541;28;20075;-68
2021/03/21 11:10:30;;;;;;;20.38;3.75;;;;;;;8.88;57.07;101592.44;10050921;28;20055;-69
2021/03/21 11:15:32;;;;;;;17.90;2.92;;;;;;;8.77;52.21;101593.63;10045175;29;20649;-69
2021/03/21 11:20:32;;;;;;;18.98;2.75;;;;;;;9.14;50.62;101589.50;10049274;28;20054;-69
2021/03/21 11:25:31;;;;;;;17.63;4.18;;;;;;;9.62;52.08;101589.56;10037272;29;20566;-68
2021/03/21 11:30:29;;;;;;;14.98;3.00;;;;;;;9.55;49.56;101594.56;10054826;28;20106;-69
2021/03/21 11:35:28;;;;;;;15.65;3.00;;;;;;;9.84;50.13;101587.16;10048619;28;20063;-68
2021/03/21 11:40:27;;;;;;;15.02;2.58;;;;;;;10.21;47.30;101584.75;10036562;28;20193;-68
2021/03/21 11:45:28;;;;;;;15.90;3.03;;;;;;;10.85;47.90;101571.53;10041639;29;20481;-68
2021/03/21 11:50:29;;;;;;;16.58;2.97;;;;;;;10.94;44.81;101588.91;10038185;29;22240;-69
2021/03/21 11:55:29;;;;;;;17.02;3.40;;;;;;;11.16;45.25;101583.59;10038608;28;20141;-68
2021/03/21 12:00:33;;;;;;;11.48;2.20;;;;;;;11.79;46.46;101573.13;10045170;28;20056;-68
2021/03/21 12:05:33;;;;;;;12.68;2.92;;;;;;;11.42;43.64;101580.41;10039162;28;20525;-68
2021/03/21 12:10:32;;;;;;;14.73;2.90;;;;;;;11.56;43.33;101575.75;10038107;29;20047;-69
2021/03/21 12:15:28;;;;;;;13.85;3.30;;;;;;;11.52;42.15;101574.72;10039797;29;20052;-68
2021/03/21 12:20:51;;;;;;;14.80;2.50;;;;;;;11.74;42.80;101575.94;10046727;29;20055;-69
2021/03/21 12:26:03;;;;;;;13.07;2.17;;;;;;;11.19;41.40;101573.97;10046141;29;20111;-69
2021/03/21 12:31:08;;;;;;;12.13;2.28;;;;;;;11.28;41.34;101580.38;10045403;29;20062;-70
2021/03/21 12:36:07;;;;;;;10.65;2.30;;;;;;;11.71;41.17;101576.56;10029293;28;22077;-68
2021/03/21 12:41:30;;;;;;;9.48;1.98;;;;;;;11.77;39.48;101591.78;10052202;28;20083;-69
2021/03/21 12:46:48;;;;;;;13.25;2.90;;;;;;;12.74;39.14;101586.94;10030968;29;20047;-69
2021/03/21 12:51:47;;;;;;;12.80;2.75;;;;;;;13.82;36.05;101592.41;10042027;29;20059;-70
2021/03/21 12:56:42;;;;;;;9.93;2.30;;;;;;;13.38;36.27;101583.16;10046965;28;20126;-69
2021/03/21 13:01:46;;;;;;;9.77;2.03;;;;;;;14.35;34.85;101594.13;10039389;28;20508;-69
2021/03/21 13:06:43;;;;;;;9.10;2.15;;;;;;;14.07;33.88;101588.91;10035165;28;20062;-69
2021/03/21 13:11:39;;;;;;;7.68;1.88;;;;;;;14.48;32.05;101575.84;10033886;28;20103;-68
2021/03/21 13:16:35;;;;;;;9.80;1.67;;;;;;;14.89;31.27;101575.38;10032609;29;20147;-68
2021/03/21 13:21:31;;;;;;;9.10;2.35;;;;;;;15.63;35.91;101573.38;10033962;28;20048;-68
2021/03/21 13:26:27;;;;;;;10.88;2.30;;;;;;;15.98;32.71;101581.50;10030499;29;20062;-69
2021/03/21 13:31:23;;;;;;;8.38;1.58;;;;;;;15.52;35.21;101588.66;10034379;28;20055;-68
2021/03/21 13:36:20;;;;;;;12.90;2.95;;;;;;;13.61;31.64;101601.22;10041085;28;20142;-68
2021/03/21 13:41:16;;;;;;;6.30;1.40;;;;;;;13.21;32.80;101592.91;10040317;28;20113;-68
2021/03/21 13:46:12;;;;;;;5.07;1.65;;;;;;;14.46;31.96;101589.94;10032648;29;20122;-68
2021/03/21 13:51:08;;;;;;;10.50;1.30;;;;;;;15.19;31.46;101589.25;10032513;29;20103;-69
2021/03/21 13:56:06;;;;;;;8.50;2.00;;;;;;;14.64;30.27;101578.94;10036933;29;20145;-68
2021/03/21 14:01:03;;;;;;;12.30;2.53;;;;;;;13.96;31.24;101584.84;10053527;29;20409;-68
2021/03/21 14:06:00;;;;;;;6.72;2.45;;;;;;;13.94;32.28;101583.53;10048979;29;20393;-69
2021/03/21 14:10:57;;;;;;;9.25;2.30;;;;;;;12.64;34.52;101581.69;10043128;28;20107;-68
2021/03/21 14:15:53;;;;;;;11.75;2.38;;;;;;;11.98;36.63;101590.28;10049324;28;20074;-67
2021/03/21 14:20:52;;;;;;;8.80;2.65;;;;;;;11.75;38.16;101583.06;10044227;29;20478;-68
2021/03/21 14:25:48;;;;;;;11.27;2.70;;;;;;;11.71;39.15;101576.56;10046085;29;20102;-68
2021/03/21 14:30:45;;;;;;;12.02;2.40;;;;;;;11.74;39.96;101575.94;10056571;29;20122;-67
2021/03/21 14:35:42;;;;;;;12.55;2.45;;;;;;;11.48;40.67;101568.22;10051232;29;20044;-67
2021/03/21 14:40:38;;;;;;;11.65;2.65;;;;;;;11.41;40.31;101567.81;10050179;28;20047;-68
2021/03/21 14:45:35;;;;;;;14.05;2.22;;;;;;;11.40;40.80;101560.72;10043434;28;20095;-67
2021/03/21 14:50:31;;;;;;;12.02;2.30;;;;;;;11.63;40.15;101566.28;10045218;28;20061;-68
2021/03/21 14:55:31;;;;;;;7.32;1.80;;;;;;;11.08;36.93;101570.59;10051394;28;20047;-66
2021/03/21 15:00:34;;;;;;;15.50;3.67;;;;;;;11.21;37.60;101557.22;10055548;29;20092;-66
2021/03/21 15:05:31;;;;;;;11.93;2.42;;;;;;;11.03;37.60;101578.88;10039251;29;20055;-68
2021/03/21 15:10:29;;;;;;;11.15;2.17;;;;;;;11.23;38.89;101560.47;10043329;28;20056;-68
2021/03/21 15:15:31;;;;;;;16.65;2.80;;;;;;;11.29;40.00;101564.75;10041272;29;20464;-67
2021/03/21 15:20:31;;;;;;;15.10;4.05;;;;;;;10.96;40.35;101573.00;10040957;28;20054;-66
2021/03/21 15:25:31;;;;;;;9.77;2.25;;;;;;;10.91;39.89;101560.22;10045314;28;20055;-67
2021/03/21 15:30:28;;;;;;;17.52;2.65;;;;;;;10.76;40.39;101567.84;10044362;29;20666;-67
2021/03/21 15:35:27;;;;;;;15.77;2.53;;;;;;;10.76;41.81;101562.38;10037745;29;20087;-66
2021/03/21 15:40:28;;;;;;;13.80;2.40;;;;;;;10.49;43.32;101552.97;10045675;28;20087;-65
2021/03/21 15:45:27;;;;;;;14.82;3.90;;;;;;;10.69;43.58;101554.56;10033791;29;20063;-69
2021/03/21 15:50:24;;;;;;;24.30;3.65;;;;;;;10.08;46.96;101564.44;10035822;28;20043;-65
2021/03/21 15:55:21;;;;;;;16.48;2.80;;;;;;;9.82;48.97;101585.81;10048834;28;20106;-66
2021/03/21 16:00:24;;;;;;;16.50;4.00;;;;;;;9.57;52.00;101570.53;10053791;28;20051;-67
2021/03/21 16:05:22;;;;;;;19.58;3.13;;;;;;;9.34;53.01;101578.41;10056874;28;20054;-65
2021/03/21 16:10:24;;;;;;;23.90;3.75;;;;;;;8.95;54.63;101576.56;10054410;29;20087;-69
2021/03/21 16:15:24;;;;;;;29.48;4.38;;;;;;;8.96;54.26;101578.22;10047002;29;20056;-66
2021/03/21 16:20:26;;;;;;;23.67;3.40;;;;;;;8.72;55.21;101582.75;10041061;28;20063;-66
2021/03/21 16:25:25;;;;;;;25.10;4.25;;;;;;;9.04;54.33;101579.50;10044031;28;20062;-66
2021/03/21 16:30:25;;;;;;;29.83;4.53;;;;;;;9.00;54.55;101592.88;10043996;28;20044;-66
2021/03/21 16:35:24;;;;;;;18.38;3.85;;;;;;;8.72;54.82;101605.38;10047715;28;20047;-66
2021/03/21 16:40:22;;;;;;;27.33;4.28;;;;;;;8.40;55.21;101614.03;10034099;28;20489;-66
2021/03/21 16:45:27;;;;;;;28.48;4.38;;;;;;;8.40;56.11;101614.03;10347233;27;20928;-68
2021/03/21 16:50:25;;;;;;;29.98;5.45;;;;;;;7.89;56.98;101625.13;10295755;28;20090;-65
2021/03/21 16:55:22;;;;;;;22.27;3.90;;;;;;;7.94;56.78;101622.41;10265586;28;20057;-66
2021/03/21 17:00:21;;;;;;;23.08;3.22;;;;;;;7.65;57.90;101612.13;10276686;28;20547;-65
2021/03/21 17:05:17;;;;;;;20.52;3.55;;;;;;;7.38;58.48;101616.00;10284573;28;20167;-67
2021/03/21 17:10:15;;;;;;;23.23;3.80;;;;;;;7.40;58.67;101628.50;10289638;28;20064;-67
2021/03/21 17:15:12;;;;;;;22.98;4.47;;;;;;;7.33;59.31;101624.16;10279515;28;20048;-66
2021/03/21 17:20:10;;;;;;;24.88;3.92;;;;;;;7.35;59.85;101651.91;10279748;28;20049;-65
2021/03/21 17:25:07;;;;;;;31.33;6.45;;;;;;;7.12;60.51;101655.16;10278054;28;20041;-67
2021/03/21 17:30:07;;;;;;;31.90;6.68;;;;;;;6.82;61.63;101651.31;10290610;28;20045;-69
2021/03/21 17:35:05;;;;;;;31.00;4.97;;;;;;;6.72;62.39;101664.91;10281273;28;20076;-65
2021/03/21 17:40:01;;;;;;;32.50;5.57;;;;;;;6.64;62.90;101654.59;10284172;28;20488;-66
2021/03/21 17:45:40;;;;;;;36.17;5.60;;;;;;;6.59;62.83;101679.00;10280810;28;20056;-65
2021/03/21 17:50:38;;;;;;;20.92;4.10;;;;;;;6.59;62.44;101679.00;10269086;28;20045;-66
2021/03/21 17:55:35;;;;;;;24.42;4.95;;;;;;;6.37;63.06;101685.47;10253020;28;20118;-65
2021/03/21 18:00:31;;;;;;;32.35;5.18;;;;;;;6.41;62.47;101692.00;10243661;28;20073;-65
2021/03/21 18:05:27;;;;;;;25.80;4.65;;;;;;;6.21;62.81;101706.28;10256673;28;20135;-69
2021/03/21 18:10:23;;;;;;;23.17;3.70;;;;;;;6.15;62.88;101701.09;10286839;28;20630;-67
2021/03/21 18:15:24;;;;;;;17.92;3.50;;;;;;;6.09;62.90;101714.66;10260569;28;20420;-65
2021/03/21 18:20:24;;;;;;;22.88;4.80;;;;;;;6.06;63.07;101730.66;10276770;28;20053;-65
2021/03/21 18:25:24;;;;;;;22.45;4.07;;;;;;;6.03;63.33;101725.75;10256035;28;20051;-66
2021/03/21 18:30:25;;;;;;;25.48;4.35;;;;;;;5.86;63.43;101737.56;10265659;28;20045;-67
2021/03/21 18:35:22;;;;;;;26.63;4.85;;;;;;;5.95;63.07;101743.34;10266586;28;20489;-66
2021/03/21 18:40:21;;;;;;;45.15;6.07;;;;;;;5.83;64.38;101737.28;10272086;28;20056;-67
2021/03/21 18:45:21;;;;;;;32.08;4.93;;;;;;;5.78;64.23;101750.78;10269416;28;20099;-65
2021/03/21 18:50:21;;;;;;;39.83;4.38;;;;;;;5.31;65.50;101762.34;10273144;28;20052;-65
2021/03/21 18:55:17;;;;;;;32.40;6.60;;;;;;;5.46;66.36;101754.34;10260014;28;20076;-66
2021/03/21 19:00:27;;;;;;;22.88;3.72;;;;;;;5.36;65.88;101754.25;10240198;28;20106;-66
2021/03/21 19:05:25;;;;;;;25.63;4.05;;;;;;;5.44;65.91;101770.88;10238540;28;20147;-66
2021/03/21 19:10:32;;;;;;;31.10;5.40;;;;;;;5.39;66.44;101772.72;10244643;28;20076;-66
2021/03/21 19:15:29;;;;;;;35.47;6.45;;;;;;;5.20;66.68;101773.09;10251026;28;20072;-65
2021/03/21 19:20:28;;;;;;;32.97;5.47;;;;;;;5.14;67.30;101774.09;10263251;28;20812;-67
2021/03/21 19:25:29;;;;;;;25.13;5.75;;;;;;;5.14;66.98;101774.09;10258766;28;20048;-65
2021/03/21 19:30:28;;;;;;;29.10;5.95;;;;;;;5.12;67.21;101765.41;10253330;28;20057;-66
2021/03/21 19:35:30;;;;;;;49.70;7.85;;;;;;;5.20;67.07;101770.38;10264161;28;20071;-66
2021/03/21 19:40:29;;;;;;;29.13;4.95;;;;;;;5.25;66.88;101775.03;10250533;28;20417;-67
2021/03/21 19:45:28;;;;;;;31.90;4.60;;;;;;;4.92;68.21;101785.00;10252646;28;20056;-66
2021/03/21 19:50:27;;;;;;;41.60;5.68;;;;;;;4.72;68.55;101766.59;10250340;28;20065;-66
2021/03/21 19:55:24;;;;;;;33.03;4.35;;;;;;;4.85;68.48;101771.63;10257407;28;20045;-67
2021/03/21 20:00:20;;;;;;;32.10;4.75;;;;;;;4.87;68.58;101770.53;10268499;28;20463;-66
2021/03/21 20:05:16;;;;;;;28.02;4.35;;;;;;;4.90;68.14;101778.16;10263467;28;20493;-65
2021/03/21 20:10:20;;;;;;;39.65;7.43;;;;;;;4.97;67.89;101776.09;10254798;28;20053;-66
2021/03/21 20:15:20;;;;;;;30.35;5.38;;;;;;;4.95;68.14;101783.66;10255249;28;20125;-65
2021/03/21 20:20:20;;;;;;;34.13;5.20;;;;;;;4.95;68.05;101776.34;10251072;28;20044;-66
2021/03/21 20:25:26;;;;;;;36.38;4.70;;;;;;;4.76;68.90;101778.56;10257446;28;20080;-65
2021/03/21 20:30:23;;;;;;;35.30;5.47;;;;;;;4.68;68.88;101780.91;10268373;28;20045;-66
2021/03/21 20:35:24;;;;;;;40.33;7.40;;;;;;;4.58;69.45;101795.13;10263405;28;20058;-67
2021/03/21 20:40:23;;;;;;;33.65;4.50;;;;;;;4.56;69.80;101794.56;10254898;28;20053;-65
2021/03/21 20:45:20;;;;;;;33.10;4.75;;;;;;;4.68;69.01;101797.16;10255248;28;20106;-65
2021/03/21 20:50:20;;;;;;;30.60;4.90;;;;;;;4.58;69.96;101808.69;10248261;28;20110;-66
2021/03/21 20:55:22;;;;;;;43.72;7.88;;;;;;;4.65;69.34;101809.31;10257703;28;20045;-65
2021/03/21 21:00:23;;;;;;;42.70;6.47;;;;;;;4.56;69.68;101799.97;10257099;28;20040;-68
2021/03/21 21:05:19;;;;;;;34.70;5.95;;;;;;;4.60;70.00;101801.13;10246761;28;20136;-69
2021/03/21 21:10:18;;;;;;;39.25;5.57;;;;;;;4.59;69.98;101794.06;10260317;28;20057;-66
2021/03/21 21:15:32;;;;;;;46.03;5.93;;;;;;;4.49;70.05;101802.06;10269657;28;20079;-69
2021/03/21 21:20:32;;;;;;;34.33;4.90;;;;;;;4.49;70.28;101802.06;10269048;28;20049;-69
2021/03/21 21:25:29;;;;;;;34.15;4.38;;;;;;;4.55;70.08;101798.31;10267979;28;20467;-65
2021/03/21 21:30:26;;;;;;;35.30;4.90;;;;;;;4.47;70.31;101796.06;10258965;28;20060;-66
2021/03/21 21:35:31;;;;;;;38.85;5.63;;;;;;;4.45;70.12;101803.63;10254361;28;20064;-69
2021/03/21 21:40:28;;;;;;;39.78;5.15;;;;;;;4.20;71.53;101807.59;10246983;28;20041;-69
2021/03/21 21:45:44;;;;;;;35.17;4.68;;;;;;;4.02;71.50;101808.69;10253430;28;20053;-69
2021/03/21 21:50:40;;;;;;;29.58;3.65;;;;;;;4.13;71.89;101812.34;10262849;28;20044;-69
2021/03/21 21:55:44;;;;;;;30.65;5.22;;;;;;;4.08;71.35;101820.41;10282818;28;20408;-69
2021/03/21 22:00:40;;;;;;;;;;;;;;;3.95;72.13;101811.56;10282446;28;20091;-69
2021/03/21 22:05:36;;;;;;;27.85;5.63;;;;;;;3.85;72.82;101805.97;10268237;28;19931;-69
2021/03/21 22:10:36;;;;;;;41.58;6.55;;;;;;;3.83;72.58;101818.94;10270033;28;20049;-67
2021/03/21 22:15:34;;;;;;;36.08;5.05;;;;;;;3.65;72.84;101824.59;10281857;28;20045;-67
2021/03/21 22:20:32;;;;;;;30.63;5.00;;;;;;;3.61;73.24;101818.03;10277626;28;20041;-70
2021/03/21 22:25:30;;;;;;;28.77;4.65;;;;;;;3.40;74.53;101814.97;10274426;28;20094;-71
2021/03/21 22:30:28;;;;;;;32.08;5.18;;;;;;;3.44;73.93;101826.94;10267697;28;20045;-68
2021/03/21 22:35:25;;;;;;;32.25;3.90;;;;;;;3.38;74.66;101833.28;10276840;28;20063;-68
2021/03/21 22:40:24;;;;;;;33.38;6.45;;;;;;;3.51;73.79;101838.41;10266084;28;20052;-68
2021/03/21 22:45:21;;;;;;;36.78;5.22;;;;;;;3.62;73.73;101833.19;10267760;28;20049;-68
2021/03/21 22:50:18;;;;;;;27.83;4.90;;;;;;;3.53;73.41;101836.28;10260712;28;20228;-70
2021/03/21 22:55:15;;;;;;;32.90;5.55;;;;;;;3.46;73.47;101835.63;10270820;28;20045;-70
2021/03/21 23:00:18;;;;;;;28.60;4.80;;;;;;;3.38;74.36;101827.88;10280505;28;20496;-70
2021/03/21 23:05:17;;;;;;;27.75;4.35;;;;;;;3.43;74.51;101835.28;10265880;28;20045;-71
2021/03/21 23:10:16;;;;;;;42.20;4.47;;;;;;;3.38;74.04;101838.72;10268103;28;20480;-69
2021/03/21 23:15:13;;;;;;;26.55;3.65;;;;;;;3.33;74.42;101835.91;10270930;28;20084;-69